ADDS METAR Data INFO
IDs: Format: Raw Decoded Include TAF

Data at: 0922 UTC 17 Oct 2017

METAR for:TIST (St Thomas/King Arpt, --, VI)
Text:TIST 170855Z 12010G16KT 090V150 9999 FEW006 28/23 A3204 RMK AO2A LTG DSNT NW SLP823 WND DATA ESTMD
Temperature: 28.0°C ( 82°F)
Dewpoint: 23.0°C ( 73°F) [RH = 74%]
Pressure (altimeter):missing [Sea level pressure: 982.3 mb]
Winds:from the ESE (120 degrees) at 12 MPH (10 knots; 5.1 m/s) gusting to 18 MPH (16 knots; 8.2 m/s)
Visibility:6 or more sm (10+ km)
Ceiling:at least 12,000 feet AGL
Clouds: few clouds at 600 feet AGL